createdAt,value
2019-03-18T00:01:33.355Z,1017.1
2019-03-18T00:06:33.353Z,1017.1
2019-03-18T00:11:33.297Z,1017.2
2019-03-18T00:16:33.350Z,1017.2
2019-03-18T00:21:33.321Z,1017.3
2019-03-18T00:26:33.127Z,1017.2
2019-03-18T00:31:33.151Z,1017.1
2019-03-18T00:36:33.255Z,1017
2019-03-18T00:41:33.123Z,1017.1
2019-03-18T00:46:33.326Z,1017.2
2019-03-18T00:51:33.353Z,1017.2
2019-03-18T00:56:33.158Z,1017.2
2019-03-18T01:01:33.344Z,1017.1
2019-03-18T01:06:33.159Z,1017
2019-03-18T01:11:33.404Z,1017.1
2019-03-18T01:16:33.341Z,1017
2019-03-18T01:21:33.124Z,1017.1
2019-03-18T01:26:33.181Z,1017
2019-03-18T01:31:33.329Z,1017
2019-03-18T01:36:33.361Z,1017
2019-03-18T01:41:33.399Z,1017
2019-03-18T01:46:33.332Z,1017.1
2019-03-18T01:51:33.384Z,1017.1
2019-03-18T01:56:33.405Z,1017.3
2019-03-18T02:01:33.337Z,1017.2
2019-03-18T02:06:33.325Z,1017.1
2019-03-18T02:11:33.413Z,1017
2019-03-18T02:16:33.199Z,1017
2019-03-18T02:21:33.197Z,1017.1
2019-03-18T02:26:33.345Z,1017.1
2019-03-18T02:31:33.450Z,1017
2019-03-18T02:36:33.377Z,1017.1
2019-03-18T02:41:33.437Z,1017.4
2019-03-18T02:46:33.231Z,1017.6
2019-03-18T02:51:33.281Z,1017.6
2019-03-18T02:56:33.418Z,1017.3
2019-03-18T03:01:33.341Z,1017.4
2019-03-18T03:06:33.394Z,1017.4
2019-03-18T03:11:35.091Z,1017.4
2019-03-18T03:16:33.454Z,1017.5
2019-03-18T03:21:33.476Z,1017.5
2019-03-18T03:26:33.523Z,1017.6
2019-03-18T03:31:33.446Z,1017.6
2019-03-18T03:36:33.282Z,1017.6
2019-03-18T03:41:33.425Z,1017.7
2019-03-18T03:46:44.349Z,1017.9
2019-03-18T03:51:33.501Z,1017.9
2019-03-18T03:56:33.264Z,1018.1
2019-03-18T04:01:33.467Z,1018.1
2019-03-18T04:06:33.250Z,1018
2019-03-18T04:11:33.272Z,1018.1
2019-03-18T04:16:33.460Z,1018.2
2019-03-18T04:21:33.287Z,1018.3
2019-03-18T04:26:33.291Z,1018.3
2019-03-18T04:31:33.285Z,1018.4
2019-03-18T04:36:33.491Z,1018.2
2019-03-18T04:41:33.515Z,1018.3
2019-03-18T04:46:33.427Z,1018.4
2019-03-18T04:51:33.261Z,1018.3
2019-03-18T04:56:33.276Z,1018.4
2019-03-18T05:01:33.287Z,1018.6
2019-03-18T05:06:33.526Z,1018.6
2019-03-18T05:11:33.309Z,1018.5
2019-03-18T05:16:33.297Z,1018.5
2019-03-18T05:21:33.302Z,1018.5
2019-03-18T05:26:33.323Z,1018.7
2019-03-18T05:31:33.451Z,1018.8
2019-03-18T05:36:33.338Z,1018.9
2019-03-18T05:41:33.315Z,1018.8
2019-03-18T05:46:33.357Z,1018.8
2019-03-18T05:51:33.306Z,1018.7
2019-03-18T05:56:33.554Z,1018.9
2019-03-18T06:01:33.293Z,1018.8
2019-03-18T06:06:33.500Z,1018.8
2019-03-18T06:11:33.370Z,1019
2019-03-18T06:16:33.443Z,1019.1
2019-03-18T06:21:33.363Z,1018.8
2019-03-18T06:26:33.524Z,1018.9
2019-03-18T06:31:33.558Z,1019
2019-03-18T06:36:33.521Z,1018.9
2019-03-18T06:41:33.506Z,1018.8
2019-03-18T06:46:33.341Z,1019
2019-03-18T06:51:33.483Z,1019.2
2019-03-18T06:56:33.340Z,1019.4
2019-03-18T07:01:33.369Z,1019.4
2019-03-18T07:06:33.478Z,1019.5
2019-03-18T07:11:33.366Z,1019.4
2019-03-18T07:16:33.561Z,1019.3
2019-03-18T07:21:33.353Z,1019.3
2019-03-18T07:26:33.494Z,1019.5
2019-03-18T07:31:33.389Z,1019.3
2019-03-18T07:36:33.370Z,1019.5
2019-03-18T07:41:33.363Z,1019.5
2019-03-18T07:46:33.627Z,1019.6
2019-03-18T07:51:33.597Z,1019.7
2019-03-18T07:56:33.381Z,1019.7
2019-03-18T08:01:33.560Z,1019.8
2019-03-18T08:06:33.393Z,1019.9
2019-03-18T08:11:33.368Z,1019.7
2019-03-18T08:16:33.547Z,1019.8
2019-03-18T08:21:34.629Z,1019.9
2019-03-18T08:26:33.628Z,1019.7
2019-03-18T08:31:33.557Z,1019.7
2019-03-18T08:36:33.403Z,1019.8
2019-03-18T08:41:33.429Z,1019.9
2019-03-18T08:46:33.569Z,1019.9
2019-03-18T08:51:33.591Z,1019.8
2019-03-18T08:56:33.630Z,1019.6
2019-03-18T09:01:33.549Z,1019.7
2019-03-18T09:06:33.603Z,1019.6
2019-03-18T09:11:33.683Z,1019.6
2019-03-18T09:16:33.432Z,1019.6
2019-03-18T09:21:33.600Z,1019.7
2019-03-18T09:26:33.675Z,1019.9
2019-03-18T09:31:33.450Z,1019.8
2019-03-18T09:36:33.442Z,1019.9
2019-03-18T09:41:33.666Z,1019.8
2019-03-18T09:46:33.688Z,1019.9
2019-03-18T09:51:33.592Z,1020
2019-03-18T09:56:33.436Z,1020
2019-03-18T10:01:33.687Z,1020.1
2019-03-18T10:06:33.498Z,1020.1
2019-03-18T10:11:33.408Z,1020.2
2019-03-18T10:16:33.456Z,1020.2
2019-03-18T10:21:33.598Z,1020.2
2019-03-18T10:26:33.618Z,1020.2
2019-03-18T10:31:33.564Z,1020.4
2019-03-18T10:36:33.426Z,1020.5
2019-03-18T10:41:33.475Z,1020.5
2019-03-18T10:46:33.472Z,1020.4
2019-03-18T10:51:33.776Z,1020.5
2019-03-18T10:56:33.643Z,1020.5
2019-03-18T11:01:33.638Z,1020.6
2019-03-18T11:06:33.712Z,1020.5
2019-03-18T11:11:33.632Z,1020.5
2019-03-18T11:16:33.672Z,1020.7
2019-03-18T11:21:33.722Z,1020.8
2019-03-18T11:26:33.652Z,1020.6
2019-03-18T11:31:33.465Z,1020.7
2019-03-18T11:36:33.720Z,1020.7
2019-03-18T11:41:33.793Z,1020.7
2019-03-18T11:46:33.503Z,1020.6
2019-03-18T11:51:33.706Z,1020.6
2019-03-18T11:56:33.541Z,1020.5
2019-03-18T12:01:33.686Z,1020.5
2019-03-18T12:06:33.519Z,1020.5
2019-03-18T12:11:33.527Z,1020.5
2019-03-18T12:16:33.521Z,1020.5
2019-03-18T12:21:33.546Z,1020.4
2019-03-18T12:26:33.761Z,1020.3
2019-03-18T12:31:33.674Z,1020.3
2019-03-18T12:36:33.558Z,1020.3
2019-03-18T12:41:33.747Z,1020.3
2019-03-18T12:46:33.571Z,1020.3
2019-03-18T12:51:33.730Z,1020.3
2019-03-18T12:56:33.907Z,1020.3
2019-03-18T13:01:33.936Z,1020.5
2019-03-18T13:06:34.123Z,1020.5
2019-03-18T13:11:34.085Z,1020.5
2019-03-18T13:16:34.148Z,1020.5
2019-03-18T13:21:34.135Z,1020.5
2019-03-18T13:26:33.964Z,1020.5
2019-03-18T13:31:33.950Z,1020.6
2019-03-18T13:36:34.134Z,1020.8
2019-03-18T13:41:33.952Z,1020.9
2019-03-18T13:46:34.089Z,1020.9
2019-03-18T13:51:34.019Z,1021
2019-03-18T13:56:33.947Z,1021
2019-03-18T14:01:34.135Z,1021
2019-03-18T14:06:34.075Z,1021.1
2019-03-18T14:11:33.989Z,1021
2019-03-18T14:16:33.992Z,1020.9
2019-03-18T14:21:34.127Z,1021
2019-03-18T14:26:34.005Z,1020.9
2019-03-18T14:31:33.934Z,1020.9
2019-03-18T14:36:34.050Z,1020.9
2019-03-18T14:41:33.991Z,1021.1
2019-03-18T14:46:33.967Z,1021.1
2019-03-18T14:51:46.559Z,1021
2019-03-18T14:56:34.213Z,1020.9
2019-03-18T15:01:34.158Z,1020.9
2019-03-18T15:06:34.138Z,1021
2019-03-18T15:11:33.987Z,1021.1
2019-03-18T15:16:34.231Z,1021.3
2019-03-18T15:21:34.136Z,1021.3
2019-03-18T15:26:34.023Z,1021.3
2019-03-18T15:31:34.202Z,1021.1
2019-03-18T15:36:34.254Z,1021.1
2019-03-18T15:41:34.146Z,1021.2
2019-03-18T15:46:34.239Z,1021.4
2019-03-18T15:51:34.290Z,1021.3
2019-03-18T15:56:34.129Z,1021.4
2019-03-18T16:01:34.213Z,1021.6
2019-03-18T16:06:34.034Z,1021.6
2019-03-18T16:11:34.183Z,1021.6
2019-03-18T16:16:33.981Z,1021.7
2019-03-18T16:21:34.040Z,1021.6
2019-03-18T16:26:34.184Z,1021.7
2019-03-18T16:31:34.203Z,1021.8
2019-03-18T16:36:34.023Z,1021.8
2019-03-18T16:41:34.027Z,1021.8
2019-03-18T16:46:34.079Z,1021.9
2019-03-18T16:51:34.053Z,1022
2019-03-18T16:56:34.054Z,1021.9
2019-03-18T17:01:34.078Z,1022.1
2019-03-18T17:06:34.043Z,1022.1
2019-03-18T17:11:36.653Z,1022.2
2019-03-18T17:16:34.043Z,1022.3
2019-03-18T17:21:34.073Z,1022.4
2019-03-18T17:26:34.071Z,1022.5
2019-03-18T17:31:34.141Z,1022.5
2019-03-18T17:36:34.191Z,1022.6
2019-03-18T17:41:36.984Z,1022.8
2019-03-18T17:46:34.103Z,1022.8
2019-03-18T17:51:34.091Z,1022.9
2019-03-18T17:56:34.054Z,1023
2019-03-18T18:01:34.272Z,1023.1
2019-03-18T18:06:34.273Z,1023.2
2019-03-18T18:11:34.276Z,1023.3
2019-03-18T18:16:34.223Z,1023.3
2019-03-18T18:21:34.125Z,1023.5
2019-03-18T18:26:34.331Z,1023.5
2019-03-18T18:31:34.372Z,1023.5
2019-03-18T18:36:34.319Z,1023.5
2019-03-18T18:41:34.293Z,1023.5
2019-03-18T18:46:34.313Z,1023.6
2019-03-18T18:51:34.299Z,1023.7
2019-03-18T18:56:34.140Z,1023.6
2019-03-18T19:01:34.480Z,1023.6
2019-03-18T19:06:34.116Z,1023.6
2019-03-18T19:11:34.184Z,1023.6
2019-03-18T19:16:34.118Z,1023.6
2019-03-18T19:21:34.233Z,1023.6
2019-03-18T19:26:34.202Z,1023.7
2019-03-18T19:31:34.233Z,1023.8
2019-03-18T19:36:34.202Z,1023.9
2019-03-18T19:41:34.585Z,1024
2019-03-18T19:46:34.205Z,1024.1
2019-03-18T19:51:35.172Z,1024.2
2019-03-18T19:56:34.168Z,1024.3
2019-03-18T20:01:34.565Z,1024.5
2019-03-18T20:06:34.628Z,1024.6
2019-03-18T20:11:34.226Z,1024.6
2019-03-18T20:16:34.296Z,1024.7
2019-03-18T20:21:34.304Z,1024.6
2019-03-18T20:26:34.537Z,1024.6
2019-03-18T20:31:34.724Z,1024.7
2019-03-18T20:36:34.282Z,1024.7
2019-03-18T20:41:34.412Z,1024.7
2019-03-18T20:46:34.394Z,1024.9
2019-03-18T20:51:34.345Z,1024.9
2019-03-18T20:56:34.209Z,1025.1
2019-03-18T21:01:34.289Z,1025.1
2019-03-18T21:06:34.237Z,1025.2
2019-03-18T21:11:34.214Z,1025.1
2019-03-18T21:16:34.198Z,1025.1
2019-03-18T21:21:34.188Z,1025.2
2019-03-18T21:26:34.130Z,1025.2
2019-03-18T21:31:34.195Z,1025.3
2019-03-18T21:36:38.674Z,1025.4
2019-03-18T21:41:34.443Z,1025.5
2019-03-18T21:46:34.236Z,1025.5
2019-03-18T21:51:34.248Z,1025.7
2019-03-18T21:56:34.200Z,1025.7
2019-03-18T22:01:34.291Z,1025.8
2019-03-18T22:06:34.210Z,1025.8
2019-03-18T22:11:34.205Z,1025.8
2019-03-18T22:16:34.220Z,1025.9
2019-03-18T22:21:34.233Z,1025.9
2019-03-18T22:26:34.229Z,1025.9
2019-03-18T22:31:34.220Z,1025.9
2019-03-18T22:36:34.225Z,1025.9
2019-03-18T22:41:34.424Z,1026
2019-03-18T22:46:34.479Z,1026
2019-03-18T22:51:34.237Z,1026
2019-03-18T22:56:34.417Z,1025.9
2019-03-18T23:01:34.456Z,1026
2019-03-18T23:06:34.228Z,1026
2019-03-18T23:11:34.205Z,1026
2019-03-18T23:16:34.236Z,1026
2019-03-18T23:21:34.245Z,1026.1
2019-03-18T23:26:34.264Z,1026.2
2019-03-18T23:31:34.206Z,1026.1
2019-03-18T23:36:34.242Z,1026.2
2019-03-18T23:41:34.221Z,1026.2
2019-03-18T23:46:34.441Z,1026.1
2019-03-18T23:51:34.243Z,1026.2
2019-03-18T23:56:34.278Z,1026.3
